Flight Track Log - Related Links

Times and Time Zones

All times are in EDT time to prevent confusion due to time zone crossing. See the UCA596 flight status page for this flight to view local times or setup timezone preferences in your user account.

Time Position Orientation Groundspeed Altitude Reporting Facility
EDT Latitude Longitude Course Direction KTS MPH feet Rate Location/Type
Mon 01:09:28 PM 38.9667 -77.5167 322° Northwest 176 203 2,100  Level Potomac TRACON
Mon 01:10:28 PM 39.0167 -77.5667 322° Northwest 201 231 3,400 1,450 Climbing Potomac TRACON
Mon 01:11:28 PM 39.0667 -77.6000 333° Northwest 205 236 5,000 1,600 Climbing Potomac TRACON
Mon 01:12:28 PM 39.1167 -77.6000 360° North 194 223 6,600 1,513 Climbing Potomac TRACON
Mon 01:13:23 PM 39.1667 -77.6000 360° North 192 221 7,900 1,304 Climbing Potomac TRACON
Mon 01:14:23 PM 39.2167 -77.6000 360° North 193 222 9,100 1,229 Climbing Potomac TRACON
Mon 01:16:09 PM 39.3072 -77.6086 356° North 201 231 11,300 1,214 Climbing Washington Center
Mon 01:17:11 PM 39.3661 -77.5781 22° Northeast 206 237 12,500 1,180 Climbing Washington Center
Mon 01:18:11 PM 39.4269 -77.5503 19° North 212 244 13,700 1,220 Climbing Washington Center
Mon 01:19:09 PM 39.4856 -77.5250 18° North 217 250 14,900 1,109 Climbing Washington Center
Mon 01:20:10 PM 39.5464 -77.4969 20° North 222 255 15,900 609 Climbing Washington Center
Mon 01:21:27 PM 39.6428 -77.4522 20° North 258 297 16,300 745 Climbing New York Center
Mon 01:22:27 PM 39.7097 -77.4503 North 245 282 17,600 950 Climbing New York Center
Mon 01:23:27 PM 39.7683 -77.4450 North 232 267 18,200 650 Climbing New York Center
Mon 01:24:27 PM 39.8350 -77.4083 23° Northeast 232 267 18,900 400 Climbing New York Center
Mon 01:25:27 PM 39.8972 -77.3761 22° Northeast 243 280 19,000 50 Climbing New York Center
Mon 01:26:27 PM 39.9747 -77.3347 22° Northeast 265 305 19,000  Level New York Center
Mon 01:27:27 PM 40.0392 -77.3003 22° Northeast 270 311 19,000  Level New York Center
Mon 01:28:27 PM 40.1183 -77.2614 21° North 275 316 19,000  Level New York Center
Mon 01:29:27 PM 40.1850 -77.2242 23° Northeast 280 322 19,000  Level New York Center
Mon 01:30:27 PM 40.2644 -77.1825 22° Northeast 280 322 19,000  Level New York Center
Mon 01:31:27 PM 40.3289 -77.1478 22° Northeast 280 322 19,000  Level New York Center
Mon 01:32:27 PM 40.4083 -77.1058 22° Northeast 280 322 19,000  Level New York Center
Mon 01:33:27 PM 40.4747 -77.0711 22° Northeast 280 322 19,000  Level New York Center
Mon 01:34:27 PM 40.5542 -77.0292 22° Northeast 275 316 19,000 -300 Level New York Center
Mon 01:35:27 PM 40.6186 -76.9914 24° Northeast 280 322 18,400 -750 Descending New York Center
Mon 01:36:27 PM 40.7067 -76.9444 22° Northeast 291 335 17,500 -750 Descending New York Center
Mon 01:37:27 PM 40.7772 -76.9069 22° Northeast 300 345 16,900 -300 Descending New York Center
Mon 01:38:27 PM 40.8631 -76.8597 23° Northeast 300 345 16,900  Level New York Center
Mon 01:39:27 PM 40.9294 -76.8244 22° Northeast 295 339 16,900  Level New York Center
Mon 01:40:27 PM 41.0089 -76.7822 22° Northeast 289 333 16,900  Level New York Center
Mon 01:41:27 PM 41.0817 -76.7417 23° Northeast 284 327 16,900  Level New York Center
Mon 01:42:27 PM 41.1544 -76.7014 23° Northeast 278 320 16,900  Level New York Center
Mon 01:43:27 PM 41.2211 -76.6631 23° Northeast 283 326 16,900  Level New York Center
Mon 01:44:27 PM 41.2981 -76.6200 23° Northeast 278 320 16,900  Level New York Center
Mon 01:45:27 PM 41.3711 -76.5794 23° Northeast 278 320 16,900  Level New York Center
Mon 01:46:27 PM 41.4439 -76.5386 23° Northeast 278 320 16,900 -450 Level New York Center
Mon 01:47:27 PM 41.5122 -76.5028 21° North 278 320 16,000 -950 Descending New York Center
Mon 01:48:27 PM 41.5872 -76.4594 23° Northeast 286 329 15,000 -1,150 Descending New York Center
Mon 01:49:27 PM 41.6731 -76.4083 24° Northeast 291 335 13,700 -1,150 Descending New York Center
Mon 01:50:27 PM 41.7464 -76.3506 30° Northeast 296 341 12,700 -1,050 Descending New York Center
Mon 01:51:27 PM 41.8178 -76.2925 31° Northeast 301 346 11,600 -1,100 Descending New York Center
Mon 01:52:27 PM 41.8806 -76.2447 30° Northeast 301 346 10,500 -1,050 Descending New York Center
Mon 01:53:27 PM 41.9497 -76.1864 32° Northeast 296 341 9,500 -1,150 Descending New York Center
Mon 01:54:27 PM 42.0275 -76.1258 30° Northeast 296 341 8,200 -1,100 Descending New York Center
Mon 01:55:27 PM 42.0881 -76.0775 31° Northeast 290 334 7,300 -1,000 Descending New York Center
Mon 01:56:27 PM 42.1531 -76.0633 North 268 308 6,200 -1,100 Descending New York Center
Mon 01:57:27 PM 42.2078 -76.0983 335° Northwest 219 252 5,100 -1,050 Descending New York Center
Mon 01:58:27 PM 42.2581 -76.0914 North 201 231 4,100 -1,000 Descending New York Center
Mon 01:59:27 PM 42.2650 -76.0275 82° East 133 153 3,100 -950 Descending New York Center
Mon 02:00:27 PM 42.2350 -76.0025 148° Southeast 86 99 2,200 2,950 Descending New York Center
Mon 02:01:27 PM 42.2281 -75.9683 105° East 86 99 9,000 6,800 Climbing New York Center
Mon 02:03:00 PM 42.2000 -75.9667 North  Level FlightAware Approximate
Mon 02:10:00 PM 42.2084 -75.9796 North  Level Estimated
Mon 02:11:00 PM 42.2084 -75.9796 North  Level Estimated
Mon 02:12:00 PM 42.2084 -75.9796 North  Level Estimated

Login

Don't have an account? Register now (free) for customized features, flight alerts, and more!